Time;durP1;ratioP1;P1;durP2;ratioP2;P2;SDS_P1;SDS_P2;PMS_P1;PMS_P2;Temp;Humidity;BMP_temperature;BMP_pressure;BME280_temperature;BME280_humidity;BME280_pressure;Samples;Min_cycle;Max_cycle;Signal;HPM_P1;HPM_P2
2022/09/03 00:00:16;;;;;;;5.87;1.50;;;;;;;16.94;47.55;99691.94;4997905;28;20269;-62
2022/09/03 00:02:51;;;;;;;1.53;1.30;;;;;;;16.88;48.00;99684.66;5010183;28;20186;-62
2022/09/03 00:05:45;;;;;;;2.10;1.30;;;;;;;16.85;47.74;99690.13;5009783;28;20190;-62
2022/09/03 00:08:31;;;;;;;1.27;1.10;;;;;;;16.88;48.09;99682.91;5009653;28;20237;-63
2022/09/03 00:11:12;;;;;;;2.20;1.10;;;;;;;16.89;48.14;99679.34;4999746;28;20245;-63
2022/09/03 00:13:48;;;;;;;1.53;1.20;;;;;;;16.83;48.01;99679.03;5010054;28;20577;-62
2022/09/03 00:16:20;;;;;;;1.73;1.20;;;;;;;16.84;48.61;99683.28;5009625;28;20210;-62
2022/09/03 00:18:51;;;;;;;1.30;1.20;;;;;;;16.81;48.75;99691.34;4982210;28;20573;-63
2022/09/03 00:21:25;;;;;;;6.10;1.90;;;;;;;16.69;49.05;99681.06;4992365;28;20318;-63
2022/09/03 00:23:52;;;;;;;1.20;1.10;;;;;;;16.69;49.25;99675.88;4990973;28;20187;-62
2022/09/03 00:26:26;;;;;;;4.47;1.40;;;;;;;16.67;49.01;99689.94;4987710;28;20183;-63
2022/09/03 00:29:05;;;;;;;1.57;1.47;;;;;;;16.67;49.00;99676.97;5007725;28;20546;-63
2022/09/03 00:31:38;;;;;;;2.27;1.20;;;;;;;16.64;49.52;99685.84;5005899;28;20294;-63
2022/09/03 00:34:16;;;;;;;2.57;1.20;;;;;;;16.62;49.38;99679.94;4987078;28;20252;-62
2022/09/03 00:36:44;;;;;;;2.30;1.33;;;;;;;16.63;49.72;99676.41;4995538;28;20737;-62
2022/09/03 00:39:18;;;;;;;1.57;1.10;;;;;;;16.57;50.02;99676.94;4978645;28;20266;-63
2022/09/03 00:41:53;;;;;;;2.80;1.03;;;;;;;16.62;49.74;99674.75;4995227;28;20315;-62
2022/09/03 00:44:32;;;;;;;2.27;1.00;;;;;;;16.50;50.28;99679.25;4992659;28;20729;-62
2022/09/03 00:47:12;;;;;;;3.03;1.60;;;;;;;16.60;50.07;99668.91;5007296;28;20644;-62
2022/09/03 00:50:03;;;;;;;1.90;1.43;;;;;;;16.41;50.86;99667.88;4987891;28;20207;-63
2022/09/03 00:52:45;;;;;;;1.10;1.07;;;;;;;16.48;50.41;99667.34;4961493;28;20694;-63
2022/09/03 00:55:36;;;;;;;2.53;1.20;;;;;;;16.54;50.41;99666.84;4989422;28;20168;-63
2022/09/03 00:58:41;;;;;;;3.57;1.03;;;;;;;16.45;50.66;99671.84;4987020;28;20190;-62
2022/09/03 01:01:17;;;;;;;4.07;1.20;;;;;;;16.41;50.59;99669.66;5000293;28;20226;-63
2022/09/03 01:04:05;;;;;;;3.23;1.10;;;;;;;16.40;51.07;99668.84;5003977;28;20245;-62
2022/09/03 01:06:45;;;;;;;2.10;1.40;;;;;;;16.41;50.78;99669.66;4998754;28;20631;-62
2022/09/03 01:09:34;;;;;;;1.50;1.20;;;;;;;16.41;50.72;99678.28;4999105;28;20198;-62
2022/09/03 01:12:23;;;;;;;1.90;1.17;;;;;;;16.33;51.20;99674.69;4987059;28;20314;-63
2022/09/03 01:15:02;;;;;;;1.40;1.10;;;;;;;16.27;51.34;99670.84;5011563;28;20175;-63
2022/09/03 01:18:07;;;;;;;3.90;1.30;;;;;;;16.32;51.34;99675.63;4998625;28;20682;-63
2022/09/03 01:20:42;;;;;;;2.63;0.93;;;;;;;16.28;51.13;99670.69;4995048;28;20564;-63
2022/09/03 01:23:23;;;;;;;1.67;1.03;;;;;;;16.38;50.87;99673.34;5008357;28;20199;-62
2022/09/03 01:26:26;;;;;;;1.20;1.10;;;;;;;16.31;51.51;99669.63;5013270;28;20190;-63
2022/09/03 01:29:34;;;;;;;1.70;1.00;;;;;;;16.32;51.43;99670.44;5013476;28;20329;-63
2022/09/03 01:32:22;;;;;;;2.20;1.30;;;;;;;16.30;51.58;99668.81;5015416;28;20229;-62
2022/09/03 01:35:06;;;;;;;2.60;1.30;;;;;;;16.26;51.58;99666.59;4994888;28;20182;-63
2022/09/03 01:38:00;;;;;;;2.93;1.10;;;;;;;16.22;52.04;99670.41;4993409;28;20265;-63
2022/09/03 01:40:34;;;;;;;2.00;1.20;;;;;;;16.28;51.95;99664.69;4982793;28;20231;-63
2022/09/03 01:43:09;;;;;;;1.77;1.33;;;;;;;16.25;51.94;99662.38;5001903;28;20175;-63
2022/09/03 01:45:51;;;;;;;1.20;1.10;;;;;;;16.28;52.01;99659.50;4978346;28;20182;-62
2022/09/03 01:48:16;;;;;;;1.70;1.27;;;;;;;16.34;51.39;99652.97;4974356;28;20610;-63
2022/09/03 01:51:20;;;;;;;1.10;1.00;;;;;;;16.27;51.86;99663.88;4975452;28;20234;-62
2022/09/03 01:54:04;;;;;;;1.60;1.33;;;;;;;16.35;51.91;99664.97;4989770;28;20195;-64
2022/09/03 01:57:06;;;;;;;1.27;1.17;;;;;;;16.36;51.41;99667.47;4967002;28;20200;-63
2022/09/03 01:59:57;;;;;;;3.53;1.30;;;;;;;16.36;52.06;99677.84;4974186;28;20842;-63
2022/09/03 02:02:24;;;;;;;4.47;1.70;;;;;;;16.41;51.83;99670.47;4994528;28;20242;-63
2022/09/03 02:05:07;;;;;;;4.10;1.00;;;;;;;16.47;52.10;99671.72;4978350;28;20559;-63
2022/09/03 02:07:45;;;;;;;0.93;0.93;;;;;;;16.55;51.76;99671.06;4978814;28;20226;-62
2022/09/03 02:10:17;;;;;;;1.67;1.20;;;;;;;16.54;51.56;99672.03;4966283;28;20199;-62
2022/09/03 02:12:47;;;;;;;4.23;1.10;;;;;;;16.61;51.24;99663.56;5000226;28;20235;-63
2022/09/03 02:15:17;;;;;;;1.10;1.10;;;;;;;16.59;51.16;99670.66;4970040;28;20565;-63
2022/09/03 02:17:46;;;;;;;1.20;1.10;;;;;;;16.63;51.07;99660.81;4968561;28;20246;-63
2022/09/03 02:20:18;;;;;;;1.57;1.00;;;;;;;16.61;51.32;99667.94;4968004;28;20203;-62
2022/09/03 02:22:45;;;;;;;2.27;1.50;;;;;;;16.55;51.74;99669.28;4988156;28;20199;-63
2022/09/03 02:25:11;;;;;;;3.13;1.57;;;;;;;16.55;51.36;99663.28;4974774;28;20671;-62
2022/09/03 02:27:40;;;;;;;5.60;1.23;;;;;;;16.55;51.52;99671.06;4970998;28;20220;-63
2022/09/03 02:30:07;;;;;;;3.43;1.20;;;;;;;16.63;51.82;99655.63;4965043;28;20199;-62
2022/09/03 02:32:32;;;;;;;1.30;1.20;;;;;;;16.67;51.27;99666.56;5003450;28;20194;-62
2022/09/03 02:34:58;;;;;;;3.03;1.23;;;;;;;16.68;51.69;99663.84;4997563;28;20186;-63
2022/09/03 02:37:24;;;;;;;1.40;1.00;;;;;;;16.61;51.52;99665.34;4990748;28;20200;-63
2022/09/03 02:39:50;;;;;;;4.60;1.00;;;;;;;16.64;51.58;99653.88;4984678;28;20679;-62
2022/09/03 02:42:17;;;;;;;1.83;1.17;;;;;;;16.59;51.80;99662.06;4999373;28;20238;-62
2022/09/03 02:44:52;;;;;;;1.00;1.00;;;;;;;16.56;52.14;99664.91;4994254;28;20813;-62
2022/09/03 02:47:19;;;;;;;2.67;1.37;;;;;;;16.75;51.69;99664.94;4994616;28;20217;-63
2022/09/03 02:49:46;;;;;;;1.50;1.30;;;;;;;16.65;51.67;99665.91;4994630;28;20164;-63
2022/09/03 02:52:12;;;;;;;2.10;1.40;;;;;;;16.82;51.54;99667.84;4985289;28;20235;-62
2022/09/03 02:54:38;;;;;;;1.73;1.30;;;;;;;16.89;51.13;99666.34;5009074;28;20183;-62
2022/09/03 02:57:09;;;;;;;1.33;1.10;;;;;;;16.77;51.77;99673.44;4994179;28;20207;-62
2022/09/03 02:59:35;;;;;;;2.90;1.30;;;;;;;16.78;52.06;99656.91;4994298;28;20184;-62
2022/09/03 03:02:01;;;;;;;2.03;1.00;;;;;;;16.73;51.65;99661.69;4973125;28;20270;-62
2022/09/03 03:04:28;;;;;;;1.63;1.20;;;;;;;16.64;52.84;99659.06;4993850;28;20198;-62
2022/09/03 03:06:54;;;;;;;1.83;1.00;;;;;;;16.61;52.50;99658.38;5009265;28;20282;-62
2022/09/03 03:09:19;;;;;;;1.07;0.97;;;;;;;16.69;52.39;99667.28;4994341;28;20298;-63
2022/09/03 03:11:45;;;;;;;1.93;1.30;;;;;;;16.65;52.38;99663.31;4982610;28;20309;-62
2022/09/03 03:14:10;;;;;;;1.97;1.10;;;;;;;16.62;52.41;99659.19;4988651;28;20224;-62
2022/09/03 03:16:36;;;;;;;2.13;1.20;;;;;;;16.61;52.48;99660.97;4995928;28;20227;-62
2022/09/03 03:19:01;;;;;;;1.30;1.20;;;;;;;16.52;53.37;99666.97;4997278;28;20183;-62
2022/09/03 03:21:26;;;;;;;1.37;1.27;;;;;;;16.59;53.39;99660.28;4994233;28;20643;-62
2022/09/03 03:23:52;;;;;;;1.20;1.10;;;;;;;16.61;52.97;99660.16;4989301;28;20198;-62
2022/09/03 03:26:19;;;;;;;1.30;1.20;;;;;;;16.64;52.57;99666.84;4987873;28;20643;-62
2022/09/03 03:28:47;;;;;;;1.90;1.23;;;;;;;16.64;53.02;99662.47;4993986;28;20180;-62
2022/09/03 03:31:14;;;;;;;2.97;1.23;;;;;;;16.67;52.75;99658.78;4983942;28;20309;-64
2022/09/03 03:33:40;;;;;;;1.20;0.90;;;;;;;16.60;53.12;99654.13;4992986;28;20195;-62
2022/09/03 03:36:07;;;;;;;3.83;1.17;;;;;;;16.60;53.09;99654.13;4996478;28;20195;-61
2022/09/03 03:38:34;;;;;;;1.47;1.27;;;;;;;16.59;53.38;99652.47;4989099;28;20239;-62
2022/09/03 03:41:06;;;;;;;1.37;1.07;;;;;;;16.70;53.50;99653.34;4990369;28;20663;-62
2022/09/03 03:43:31;;;;;;;2.40;0.97;;;;;;;16.69;53.55;99649.09;4989114;28;20188;-62
2022/09/03 03:45:59;;;;;;;3.00;1.27;;;;;;;16.57;53.75;99648.38;4991209;28;20183;-62
2022/09/03 03:48:25;;;;;;;2.10;1.23;;;;;;;16.71;53.45;99649.78;4991233;28;20179;-62
2022/09/03 03:50:50;;;;;;;1.70;1.60;;;;;;;16.69;53.36;99654.28;4989328;28;20681;-62
2022/09/03 03:53:15;;;;;;;5.13;1.27;;;;;;;16.65;53.54;99656.31;5002302;28;20183;-63
2022/09/03 03:55:41;;;;;;;2.77;0.97;;;;;;;16.51;54.07;99654.94;4992659;28;20677;-62
2022/09/03 03:58:06;;;;;;;3.67;1.30;;;;;;;16.43;54.14;99662.56;4988574;28;20706;-63
2022/09/03 04:00:36;;;;;;;2.60;1.37;;;;;;;16.41;54.48;99662.69;4979482;28;20267;-63
2022/09/03 04:03:02;;;;;;;1.87;1.30;;;;;;;16.42;55.08;99659.16;5003702;28;20183;-62
2022/09/03 04:05:27;;;;;;;1.37;1.20;;;;;;;16.37;54.98;99653.53;4992679;28;20253;-62
2022/09/03 04:07:52;;;;;;;2.23;1.20;;;;;;;16.30;55.10;99657.63;4992868;28;20184;-62
2022/09/03 04:10:18;;;;;;;1.37;1.10;;;;;;;16.36;55.16;99658.84;4985072;28;20175;-62
2022/09/03 04:12:43;;;;;;;3.13;1.00;;;;;;;16.32;55.56;99658.28;4991463;28;20223;-62
2022/09/03 04:15:09;;;;;;;2.60;1.40;;;;;;;16.24;56.12;99658.13;4987813;28;20751;-62
2022/09/03 04:17:34;;;;;;;4.30;1.40;;;;;;;16.06;56.22;99650.13;4984470;28;20206;-63
2022/09/03 04:19:59;;;;;;;1.40;1.30;;;;;;;16.18;56.66;99645.69;4992701;28;20183;-63
2022/09/03 04:22:28;;;;;;;1.53;1.10;;;;;;;16.10;56.98;99644.56;4978757;28;20588;-63
2022/09/03 04:24:53;;;;;;;2.67;1.30;;;;;;;16.00;56.70;99641.13;4989538;28;20628;-63
2022/09/03 04:27:18;;;;;;;2.80;1.20;;;;;;;16.02;57.28;99643.56;4988258;28;20216;-62
2022/09/03 04:29:44;;;;;;;1.63;1.30;;;;;;;15.96;56.95;99652.69;4986447;28;20187;-62
2022/09/03 04:34:53;;;;;;;1.60;1.40;;;;;;;15.99;57.30;99642.06;4991096;28;20252;-62
2022/09/03 04:37:19;;;;;;;2.90;1.23;;;;;;;16.03;57.23;99640.84;4987052;28;20674;-62
2022/09/03 04:39:44;;;;;;;2.07;1.20;;;;;;;16.02;57.25;99640.97;4982062;28;20190;-62
2022/09/03 04:42:10;;;;;;;1.53;1.30;;;;;;;16.05;57.21;99645.88;4980795;28;20338;-61
2022/09/03 04:44:37;;;;;;;3.93;1.30;;;;;;;16.12;57.68;99647.84;4987133;28;20671;-64
2022/09/03 04:47:03;;;;;;;2.87;1.40;;;;;;;16.07;57.47;99651.78;4986731;28;20572;-62
2022/09/03 04:49:29;;;;;;;1.27;1.17;;;;;;;16.05;57.78;99651.09;4978756;28;20179;-62
2022/09/03 04:51:54;;;;;;;1.57;1.33;;;;;;;16.15;57.74;99651.97;4984046;28;20237;-62
2022/09/03 04:54:19;;;;;;;1.70;1.00;;;;;;;16.13;57.67;99653.84;4986888;28;20242;-61
2022/09/03 04:56:45;;;;;;;1.70;1.30;;;;;;;16.08;57.79;99663.81;4981802;28;20203;-63
2022/09/03 04:59:10;;;;;;;2.67;1.23;;;;;;;16.18;57.11;99656.06;4988640;28;20203;-61
2022/09/03 05:01:37;;;;;;;5.27;1.40;;;;;;;16.30;57.27;99663.59;4980537;28;20215;-63
2022/09/03 05:04:04;;;;;;;2.10;1.10;;;;;;;16.23;56.92;99666.88;4983799;28;20183;-62
2022/09/03 05:06:30;;;;;;;1.50;1.40;;;;;;;16.27;57.43;99671.69;4992088;28;20176;-62
2022/09/03 05:08:56;;;;;;;1.83;1.10;;;;;;;16.26;57.03;99666.59;4992052;28;20249;-62
2022/09/03 05:11:23;;;;;;;1.77;1.37;;;;;;;16.27;57.83;99674.28;4992181;28;20223;-64
2022/09/03 05:13:50;;;;;;;3.57;1.33;;;;;;;16.23;58.40;99675.47;4987508;28;20274;-63
2022/09/03 05:16:17;;;;;;;2.83;1.40;;;;;;;16.07;59.55;99673.34;5002722;28;20210;-62
2022/09/03 05:18:43;;;;;;;1.83;1.40;;;;;;;16.11;60.45;99679.09;4992358;28;20176;-62
2022/09/03 05:21:11;;;;;;;2.70;1.20;;;;;;;16.13;59.49;99683.19;4990504;28;20261;-63
2022/09/03 05:23:41;;;;;;;2.57;1.33;;;;;;;16.16;59.75;99681.31;4987484;28;20196;-63
2022/09/03 05:26:28;;;;;;;1.97;1.10;;;;;;;16.18;58.85;99685.41;4980185;28;20176;-62
2022/09/03 05:28:55;;;;;;;1.57;1.20;;;;;;;16.28;58.90;99688.88;4980330;28;20219;-62
2022/09/03 05:31:24;;;;;;;1.50;1.27;;;;;;;16.30;59.04;99691.34;5004317;28;20229;-63
2022/09/03 05:33:53;;;;;;;1.83;1.20;;;;;;;16.36;59.40;99697.78;4988552;28;20182;-62
2022/09/03 05:36:21;;;;;;;1.33;1.17;;;;;;;16.55;58.84;99703.03;5009897;28;20195;-62
2022/09/03 05:38:47;;;;;;;2.53;1.30;;;;;;;16.30;59.60;99705.13;4977866;28;20200;-62
2022/09/03 05:41:14;;;;;;;2.37;1.60;;;;;;;16.35;60.40;99709.09;4990227;28;20253;-62
2022/09/03 05:43:40;;;;;;;2.30;1.47;;;;;;;16.29;59.83;99711.28;4980207;28;20191;-63
2022/09/03 05:46:08;;;;;;;2.60;1.87;;;;;;;16.30;59.94;99710.31;4985289;28;20270;-62
2022/09/03 05:48:35;;;;;;;2.27;1.60;;;;;;;16.26;61.92;99713.31;4988944;28;20176;-64
2022/09/03 05:51:09;;;;;;;4.00;1.40;;;;;;;16.23;62.37;99716.97;4991042;28;20666;-62
2022/09/03 05:53:37;;;;;;;2.40;1.27;;;;;;;16.07;64.07;99719.22;4990768;28;20626;-62
2022/09/03 05:56:11;;;;;;;6.43;1.27;;;;;;;15.82;66.58;99716.91;5007407;28;20175;-62
2022/09/03 05:58:40;;;;;;;3.03;1.73;;;;;;;15.71;70.19;99723.91;4995493;28;20650;-62
2022/09/03 06:01:16;;;;;;;1.80;1.47;;;;;;;15.53;69.29;99719.28;5003254;28;20238;-62
2022/09/03 06:03:43;;;;;;;3.07;1.60;;;;;;;15.66;68.79;99726.88;5000869;28;20281;-63
2022/09/03 06:06:09;;;;;;;3.00;1.60;;;;;;;15.81;67.93;99728.22;4994839;28;20576;-62
2022/09/03 06:08:37;;;;;;;1.80;1.30;;;;;;;15.92;69.10;99731.72;4990859;28;20227;-62
2022/09/03 06:11:03;;;;;;;5.07;1.50;;;;;;;15.93;69.29;99726.38;4982079;28;20666;-62
2022/09/03 06:13:29;;;;;;;2.70;1.47;;;;;;;15.78;70.99;99727.66;5002340;28;20273;-62
2022/09/03 06:15:59;;;;;;;1.67;1.33;;;;;;;15.29;76.55;99735.88;4994548;28;20195;-62
2022/09/03 06:18:26;;;;;;;2.10;1.50;;;;;;;15.08;82.87;99733.22;4994709;28;20176;-62
2022/09/03 06:21:00;;;;;;;2.60;1.60;;;;;;;14.94;84.81;99731.72;4991275;28;20222;-62
2022/09/03 06:23:26;;;;;;;2.33;1.40;;;;;;;14.99;87.58;99739.94;4990014;28;20208;-63
2022/09/03 06:26:06;;;;;;;1.63;1.40;;;;;;;15.00;90.39;99738.19;4985565;28;20186;-63
2022/09/03 06:28:34;;;;;;;3.67;1.60;;;;;;;15.15;92.53;99736.94;4990153;28;20191;-63
2022/09/03 06:31:01;;;;;;;2.40;1.40;;;;;;;15.30;94.64;99749.63;5003724;28;20230;-62
2022/09/03 06:33:29;;;;;;;2.63;1.63;;;;;;;15.31;87.30;99743.50;4992309;28;20184;-63
2022/09/03 06:35:58;;;;;;;2.83;1.90;;;;;;;15.25;85.10;99733.63;4989747;28;20640;-63
2022/09/03 06:38:26;;;;;;;1.63;1.50;;;;;;;15.19;84.50;99731.53;4993342;28;20275;-63
2022/09/03 06:40:53;;;;;;;2.00;1.70;;;;;;;15.37;88.90;99737.00;4987937;28;20227;-63
2022/09/03 06:43:19;;;;;;;1.63;1.53;;;;;;;15.52;90.03;99737.53;4999979;28;20513;-62
2022/09/03 06:45:55;;;;;;;2.23;1.50;;;;;;;15.64;82.12;99732.19;4993801;28;20309;-63
2022/09/03 06:48:20;;;;;;;5.27;1.93;;;;;;;15.85;84.64;99740.94;4994001;28;20182;-64
2022/09/03 06:51:00;;;;;;;3.20;1.83;;;;;;;15.58;85.15;99734.44;4989815;28;20237;-62
2022/09/03 06:53:28;;;;;;;3.33;1.50;;;;;;;15.53;84.86;99734.00;5002010;28;20182;-62
2022/09/03 06:55:59;;;;;;;2.70;1.43;;;;;;;15.42;84.62;99740.06;4988821;28;20235;-62
2022/09/03 06:58:28;;;;;;;2.87;1.87;;;;;;;15.40;89.07;99727.22;4988747;28;20241;-62
2022/09/03 07:01:00;;;;;;;4.67;2.17;;;;;;;15.26;90.74;99730.91;4973356;28;20579;-62
2022/09/03 07:03:26;;;;;;;5.93;2.10;;;;;;;15.15;94.71;99728.38;4993270;28;20279;-62
2022/09/03 07:05:52;;;;;;;5.30;2.10;;;;;;;15.13;96.92;99725.06;4993215;28;20194;-61
2022/09/03 07:08:17;;;;;;;4.47;1.90;;;;;;;14.96;97.08;99726.44;4993613;28;20187;-63
2022/09/03 07:10:46;;;;;;;2.40;2.00;;;;;;;14.79;99.91;99728.56;4988775;28;20265;-62
2022/09/03 07:13:12;;;;;;;5.73;2.60;;;;;;;14.60;100.00;99730.91;5003242;28;20554;-62
2022/09/03 07:15:37;;;;;;;4.70;2.30;;;;;;;14.35;100.00;99727.59;4987679;28;20231;-61
2022/09/03 07:18:02;;;;;;;2.83;2.10;;;;;;;14.35;100.00;99738.78;4988958;28;20211;-61
2022/09/03 07:20:27;;;;;;;3.03;2.40;;;;;;;14.39;100.00;99738.53;4980612;28;20733;-62
2022/09/03 07:22:55;;;;;;;3.57;2.20;;;;;;;14.38;100.00;99739.50;5005282;28;20214;-62
2022/09/03 07:25:21;;;;;;;4.93;2.10;;;;;;;14.34;100.00;99738.91;4988940;28;20198;-62
2022/09/03 07:27:46;;;;;;;6.03;2.63;;;;;;;14.28;100.00;99750.53;4991578;28;20645;-62
2022/09/03 07:30:11;;;;;;;5.57;2.47;;;;;;;14.34;100.00;99749.25;4967564;28;20187;-62
2022/09/03 07:32:39;;;;;;;5.47;2.47;;;;;;;14.31;100.00;99752.91;5009523;28;20246;-62
2022/09/03 07:35:05;;;;;;;4.80;2.70;;;;;;;14.26;100.00;99752.41;4998022;28;20185;-63
2022/09/03 07:37:32;;;;;;;5.30;2.43;;;;;;;14.29;100.00;99752.19;4994349;28;20204;-63
2022/09/03 07:39:58;;;;;;;5.60;3.20;;;;;;;14.39;100.00;99738.53;4989104;28;20278;-66
2022/09/03 07:42:24;;;;;;;4.47;2.50;;;;;;;14.39;100.00;99751.47;4978682;28;20303;-62
2022/09/03 07:44:49;;;;;;;4.57;2.40;;;;;;;14.40;100.00;99751.38;4983948;28;20590;-63
2022/09/03 07:47:17;;;;;;;4.97;2.83;;;;;;;14.28;100.00;99758.31;4993443;28;20179;-62
2022/09/03 07:49:42;;;;;;;3.37;2.60;;;;;;;14.29;100.00;99759.97;4993510;28;20179;-62
2022/09/03 07:52:07;;;;;;;6.30;3.07;;;;;;;14.36;100.00;99766.31;4997808;28;20234;-63
2022/09/03 07:54:33;;;;;;;5.30;3.30;;;;;;;14.35;100.00;99759.50;4992386;28;20206;-62
2022/09/03 07:56:58;;;;;;;6.87;3.00;;;;;;;14.15;100.00;99745.47;4992770;28;20222;-63
2022/09/03 07:59:24;;;;;;;3.90;2.53;;;;;;;14.04;100.00;99760.94;4988492;28;20194;-62
2022/09/03 08:01:50;;;;;;;2.70;2.10;;;;;;;14.08;100.00;99757.22;4999057;28;20268;-62
2022/09/03 08:04:15;;;;;;;4.00;2.60;;;;;;;14.15;100.00;99768.75;4993711;28;20343;-63
2022/09/03 08:06:41;;;;;;;8.53;2.80;;;;;;;14.34;100.00;99768.19;4992591;28;20253;-63
2022/09/03 08:09:10;;;;;;;3.30;3.00;;;;;;;14.47;100.00;99769.84;4988409;28;20192;-62
2022/09/03 08:11:38;;;;;;;5.10;3.10;;;;;;;14.65;100.00;99765.88;4988121;28;20297;-62
2022/09/03 08:14:06;;;;;;;3.73;2.67;;;;;;;14.72;100.00;99776.56;4987338;28;20247;-62
2022/09/03 08:16:37;;;;;;;5.20;2.50;;;;;;;14.83;100.00;99781.78;5001147;28;20235;-62
2022/09/03 08:19:03;;;;;;;4.37;3.17;;;;;;;15.04;100.00;99769.84;4992703;28;20635;-63
2022/09/03 08:21:29;;;;;;;5.67;2.97;;;;;;;15.31;100.00;99765.06;4993399;28;20234;-63
2022/09/03 08:24:01;;;;;;;4.57;2.57;;;;;;;15.23;100.00;99753.66;4987813;28;20187;-63
2022/09/03 08:26:28;;;;;;;5.10;3.23;;;;;;;15.31;100.00;99748.69;4983756;28;20616;-63
2022/09/03 08:28:53;;;;;;;12.93;3.63;;;;;;;15.29;100.00;99758.34;4990818;28;20179;-62
2022/09/03 08:31:20;;;;;;;8.50;3.20;;;;;;;15.11;100.00;99764.06;4984480;28;20234;-62
2022/09/03 08:33:51;;;;;;;9.80;4.10;;;;;;;15.17;100.00;99773.13;4988434;28;20228;-63
2022/09/03 08:36:21;;;;;;;4.97;3.53;;;;;;;15.38;100.00;99775.78;4997849;28;20585;-62
2022/09/03 08:38:46;;;;;;;6.83;3.27;;;;;;;15.53;100.00;99791.88;4985818;28;20187;-63
2022/09/03 08:41:32;;;;;;;5.60;3.20;;;;;;;15.78;100.00;99805.44;4991522;28;20561;-63
2022/09/03 08:44:16;;;;;;;4.77;3.40;;;;;;;15.72;100.00;99791.19;4995413;28;20198;-66
2022/09/03 08:47:06;;;;;;;7.50;2.90;;;;;;;15.77;100.00;99785.63;4992522;28;20186;-62
2022/09/03 08:49:45;;;;;;;5.67;3.10;;;;;;;16.11;100.00;99790.66;4992354;28;20176;-63
2022/09/03 08:52:16;;;;;;;4.87;3.03;;;;;;;16.39;100.00;99794.38;4979823;28;20258;-63
2022/09/03 08:54:42;;;;;;;5.90;3.30;;;;;;;16.32;100.00;99793.25;4978635;28;20285;-62
2022/09/03 08:57:08;;;;;;;5.60;2.77;;;;;;;16.10;100.00;99794.19;4987962;28;20286;-63
2022/09/03 08:59:33;;;;;;;5.47;3.13;;;;;;;16.14;100.00;99800.81;4989551;28;20180;-62
2022/09/03 09:02:24;;;;;;;6.30;3.23;;;;;;;16.39;100.00;99798.75;4996814;28;20232;-62
2022/09/03 09:05:02;;;;;;;6.93;3.47;;;;;;;16.76;100.00;99788.66;4990072;28;20187;-62
2022/09/03 09:07:48;;;;;;;4.47;2.83;;;;;;;16.85;100.00;99789.66;4987941;28;20180;-62
2022/09/03 09:10:22;;;;;;;8.57;3.17;;;;;;;17.17;100.00;99803.47;4970765;28;20175;-62
2022/09/03 09:13:15;;;;;;;4.73;2.60;;;;;;;17.18;100.00;99808.50;4988693;28;20675;-62
2022/09/03 09:16:05;;;;;;;6.80;2.67;;;;;;;17.24;100.00;99810.56;5006692;28;20222;-62
2022/09/03 09:18:43;;;;;;;4.30;2.30;;;;;;;17.19;100.00;99815.34;5007181;28;20182;-61
2022/09/03 09:21:22;;;;;;;3.00;2.50;;;;;;;17.08;100.00;99818.06;4999962;28;20677;-63
2022/09/03 09:23:49;;;;;;;3.60;2.70;;;;;;;17.13;100.00;99815.88;5008963;28;20191;-61
2022/09/03 09:26:20;;;;;;;2.30;2.10;;;;;;;17.45;100.00;99811.41;4991269;28;20180;-62
2022/09/03 09:28:52;;;;;;;2.50;2.30;;;;;;;17.86;100.00;99804.31;5011169;28;20179;-62
2022/09/03 09:31:19;;;;;;;4.53;2.40;;;;;;;17.83;100.00;99805.41;5007929;28;20229;-61
2022/09/03 09:33:45;;;;;;;2.57;2.10;;;;;;;19.27;96.49;99807.03;4990334;28;20278;-61
2022/09/03 09:36:16;;;;;;;3.53;2.17;;;;;;;20.76;83.23;99809.78;4988867;28;20184;-63
2022/09/03 09:38:42;;;;;;;3.30;2.30;;;;;;;21.12;75.29;99808.75;4980940;28;20204;-63
2022/09/03 09:41:19;;;;;;;3.10;2.17;;;;;;;20.12;80.08;99814.47;4993801;28;20664;-63
2022/09/03 09:43:46;;;;;;;3.40;2.43;;;;;;;19.84;85.00;99811.97;4991145;28;20183;-62
2022/09/03 09:46:26;;;;;;;3.00;2.70;;;;;;;19.65;83.86;99805.91;5010329;28;20172;-62
2022/09/03 09:48:56;;;;;;;2.77;2.57;;;;;;;19.76;80.63;99809.25;4995378;28;20547;-63
2022/09/03 09:51:32;;;;;;;3.10;2.20;;;;;;;19.78;83.57;99808.16;5003734;28;20230;-62
2022/09/03 09:54:10;;;;;;;4.27;3.10;;;;;;;19.51;87.21;99802.03;4993684;28;20281;-62
2022/09/03 09:56:35;;;;;;;4.03;2.70;;;;;;;19.19;88.57;99802.56;4995392;28;20203;-61
2022/09/03 09:59:03;;;;;;;4.10;2.73;;;;;;;19.25;89.55;99803.72;4990859;28;20227;-61
2022/09/03 10:01:30;;;;;;;2.43;2.07;;;;;;;19.89;86.96;99804.50;4982693;28;20701;-61
2022/09/03 10:04:07;;;;;;;2.70;2.50;;;;;;;19.90;82.97;99800.13;4993953;28;20345;-61
2022/09/03 10:09:22;;;;;;;5.23;2.80;;;;;;;19.22;87.94;99802.25;4989911;28;20210;-61
2022/09/03 10:12:08;;;;;;;4.30;3.00;;;;;;;19.63;85.98;99802.63;4998554;28;20766;-61
2022/09/03 10:14:44;;;;;;;3.43;2.30;;;;;;;20.52;81.02;99807.03;4994791;28;20199;-62
2022/09/03 10:17:17;;;;;;;3.63;2.90;;;;;;;20.85;75.23;99812.41;4995039;28;20562;-62
2022/09/03 10:22:53;;;;;;;2.70;2.50;;;;;;;21.33;72.84;99813.53;4970891;28;20322;-63
2022/09/03 10:25:20;;;;;;;2.70;2.50;;;;;;;20.89;77.37;99806.72;4961910;28;20184;-62
2022/09/03 10:27:45;;;;;;;5.57;2.70;;;;;;;21.37;71.51;99816.66;4975621;28;20257;-62
2022/09/03 10:30:15;;;;;;;5.27;2.87;;;;;;;21.64;69.40;99812.94;4970322;28;20632;-62
2022/09/03 10:33:05;;;;;;;9.07;2.80;;;;;;;21.64;70.68;99823.41;4999999;28;20303;-63
2022/09/03 10:35:36;;;;;;;4.20;2.77;;;;;;;22.52;63.87;99808.75;4986944;28;20172;-62
2022/09/03 10:38:17;;;;;;;2.90;2.70;;;;;;;21.69;71.77;99804.63;4985306;28;20227;-62
2022/09/03 10:40:48;;;;;;;4.73;3.07;;;;;;;22.53;66.68;99807.78;4986829;28;20218;-63
2022/09/03 10:43:32;;;;;;;2.83;2.60;;;;;;;22.18;66.51;99809.81;5003516;28;20195;-63
2022/09/03 10:46:14;;;;;;;5.03;3.43;;;;;;;21.79;73.47;99813.09;5008748;28;20222;-64
2022/09/03 10:49:09;;;;;;;3.47;3.17;;;;;;;22.63;65.46;99812.84;4994757;28;20286;-62
2022/09/03 10:51:40;;;;;;;4.37;3.03;;;;;;;22.73;66.17;99810.00;5002462;28;20242;-62
2022/09/03 10:54:15;;;;;;;3.37;3.07;;;;;;;22.24;65.83;99809.16;5008597;28;20198;-62
2022/09/03 10:56:52;;;;;;;3.07;2.87;;;;;;;22.36;68.65;99811.41;4994259;28;20202;-62
2022/09/03 10:59:56;;;;;;;3.70;3.33;;;;;;;22.89;67.87;99811.75;4994183;28;20340;-62
2022/09/03 11:02:36;;;;;;;3.87;2.77;;;;;;;22.46;69.91;99808.63;4973029;28;20216;-62
2022/09/03 11:05:15;;;;;;;5.53;2.90;;;;;;;22.13;68.99;99804.25;4993856;28;20175;-62
2022/09/03 11:08:12;;;;;;;4.13;2.80;;;;;;;21.59;74.36;99803.00;4993908;28;20195;-62
2022/09/03 11:10:43;;;;;;;3.40;3.17;;;;;;;21.15;75.30;99807.59;4983109;28;20230;-63
2022/09/03 11:13:19;;;;;;;5.33;3.33;;;;;;;21.75;73.85;99793.50;5003457;28;20223;-62
2022/09/03 11:15:59;;;;;;;5.40;3.30;;;;;;;21.82;71.17;99791.84;5001563;28;20304;-62
2022/09/03 11:18:33;;;;;;;3.37;2.53;;;;;;;22.61;70.02;99785.16;4988885;28;20210;-62
2022/09/03 11:21:03;;;;;;;3.63;3.30;;;;;;;22.78;68.51;99793.78;4975352;28;20714;-62
2022/09/03 11:23:32;;;;;;;3.13;2.90;;;;;;;22.15;71.51;99788.38;4991807;28;20250;-62
2022/09/03 11:26:02;;;;;;;4.63;3.63;;;;;;;22.05;67.99;99792.00;4988477;28;20598;-63
2022/09/03 11:28:54;;;;;;;3.93;2.60;;;;;;;21.90;69.65;99793.63;4990532;28;20203;-62
2022/09/03 11:31:30;;;;;;;3.97;3.20;;;;;;;21.72;72.07;99797.25;4976215;28;20283;-62
2022/09/03 11:34:04;;;;;;;3.47;3.17;;;;;;;21.68;72.52;99789.88;4989930;28;20191;-62
2022/09/03 11:36:32;;;;;;;6.03;3.23;;;;;;;22.26;70.97;99780.16;4989135;28;20235;-63
2022/09/03 11:38:59;;;;;;;4.20;3.43;;;;;;;22.23;71.00;99777.88;4979783;28;20210;-63
2022/09/03 11:41:27;;;;;;;4.03;3.50;;;;;;;22.35;68.42;99775.72;4981616;28;20219;-63
2022/09/03 11:43:53;;;;;;;4.37;2.83;;;;;;;22.42;69.49;99773.28;4985231;28;20624;-62
2022/09/03 11:46:22;;;;;;;5.90;3.10;;;;;;;21.99;70.88;99779.56;4987903;28;20314;-63
2022/09/03 11:48:50;;;;;;;3.50;3.20;;;;;;;21.48;73.51;99778.91;4990597;28;20196;-62
2022/09/03 11:51:36;;;;;;;4.27;3.30;;;;;;;21.11;77.12;99780.94;4992341;28;20236;-62
2022/09/03 11:54:22;;;;;;;3.50;3.20;;;;;;;21.47;78.33;99777.25;4995298;28;20245;-61
2022/09/03 11:56:49;;;;;;;4.30;3.20;;;;;;;21.52;75.66;99765.34;4988342;28;20590;-62
2022/09/03 11:59:25;;;;;;;3.70;2.80;;;;;;;21.31;78.05;99773.66;4989049;28;20272;-61
2022/09/03 12:01:51;;;;;;;3.50;3.20;;;;;;;21.75;77.31;99767.31;4996566;28;20772;-61